Time;durP1;ratioP1;P1;durP2;ratioP2;P2;SDS_P1;SDS_P2;PMS_P1;PMS_P2;Temp;Humidity;BMP_temperature;BMP_pressure;BME280_temperature;BME280_humidity;BME280_pressure;Samples;Min_cycle;Max_cycle;Signal;HPM_P1;HPM_P2
2020/12/20 00:00:12;;;;;;;2.70;2.50;;;20.50;51.40;;;;;;5021045;28;20497;-67
2020/12/20 00:02:38;;;;;;;2.73;2.40;;;20.50;50.30;;;;;;5026567;28;20482;-65
2020/12/20 00:05:04;;;;;;;2.70;2.60;;;20.50;50.30;;;;;;5023421;28;20487;-66
2020/12/20 00:07:30;;;;;;;2.43;2.27;;;20.50;50.30;;;;;;5026347;28;20874;-66
2020/12/20 00:09:57;;;;;;;2.27;2.17;;;20.50;50.40;;;;;;5062683;28;20566;-66
2020/12/20 00:12:23;;;;;;;2.57;2.47;;;20.50;50.50;;;;;;5034278;28;20493;-66
2020/12/20 00:14:50;;;;;;;2.17;2.00;;;20.50;50.60;;;;;;5068465;28;20985;-67
2020/12/20 00:17:16;;;;;;;2.70;2.50;;;20.40;50.50;;;;;;5040244;28;20477;-67
2020/12/20 00:19:42;;;;;;;2.30;1.83;;;20.40;50.50;;;;;;5062937;28;20475;-67
2020/12/20 00:22:09;;;;;;;2.90;2.70;;;20.40;50.50;;;;;;5062192;28;20530;-66
2020/12/20 00:24:36;;;;;;;1.67;1.67;;;20.40;50.50;;;;;;5065118;28;21000;-67
2020/12/20 00:27:02;;;;;;;2.10;2.00;;;20.40;50.60;;;;;;5077287;28;20560;-67
2020/12/20 00:29:29;;;;;;;2.23;2.13;;;20.40;50.50;;;;;;5063309;28;20503;-67
2020/12/20 00:31:56;;;;;;;2.47;2.30;;;20.40;50.50;;;;;;5077228;28;20492;-66
2020/12/20 00:34:22;;;;;;;2.20;2.07;;;20.40;50.50;;;;;;5046322;28;21533;-65
2020/12/20 00:36:49;;;;;;;2.40;2.20;;;20.40;50.50;;;;;;5040377;28;20481;-66
2020/12/20 00:39:16;;;;;;;2.20;2.10;;;20.40;50.60;;;;;;4994620;28;21466;-67
2020/12/20 00:41:42;;;;;;;2.23;2.03;;;20.40;50.40;;;;;;5015712;28;20477;-67
2020/12/20 00:44:08;;;;;;;1.90;1.80;;;20.30;50.40;;;;;;5013948;28;20492;-67
2020/12/20 00:46:34;;;;;;;2.30;2.20;;;20.40;50.40;;;;;;5048680;28;20473;-66
2020/12/20 00:49:02;;;;;;;2.37;2.27;;;20.40;50.40;;;;;;5047007;28;20532;-66
2020/12/20 00:51:29;;;;;;;3.10;2.57;;;20.50;50.30;;;;;;5031194;28;20543;-66
2020/12/20 00:53:56;;;;;;;3.33;2.80;;;20.50;50.20;;;;;;5032859;28;20493;-67
2020/12/20 00:56:22;;;;;;;2.40;2.20;;;20.50;50.20;;;;;;5049683;28;20521;-65
2020/12/20 00:58:48;;;;;;;2.77;2.57;;;20.50;50.10;;;;;;5026284;28;20486;-66
2020/12/20 01:01:16;;;;;;;2.70;2.50;;;20.50;49.90;;;;;;5051250;28;20477;-67
2020/12/20 01:03:42;;;;;;;2.50;2.30;;;20.50;49.80;;;;;;5025227;28;20481;-66
2020/12/20 01:06:17;;;;;;;2.47;2.37;;;20.50;49.80;;;;;;5043937;28;20479;-66
2020/12/20 01:08:43;;;;;;;2.07;1.97;;;20.50;49.90;;;;;;5042504;28;20490;-65
2020/12/20 01:11:09;;;;;;;2.67;2.57;;;20.50;50.60;;;;;;5051038;28;20513;-66
2020/12/20 01:13:36;;;;;;;2.10;1.90;;;20.50;49.90;;;;;;5042332;28;20516;-66
2020/12/20 01:16:02;;;;;;;2.30;2.20;;;20.50;50.00;;;;;;5050212;28;20493;-67
2020/12/20 01:18:28;;;;;;;2.20;2.10;;;20.50;50.00;;;;;;5053403;28;20891;-67
2020/12/20 01:20:54;;;;;;;2.17;2.03;;;20.50;50.10;;;;;;5032455;28;20489;-66
2020/12/20 01:23:22;;;;;;;2.70;2.50;;;20.40;50.00;;;;;;5058397;28;20500;-65
2020/12/20 01:25:48;;;;;;;1.80;1.80;;;20.40;50.00;;;;;;5071223;28;20497;-67
2020/12/20 01:28:14;;;;;;;2.47;2.37;;;20.40;50.00;;;;;;5068725;28;20560;-66
2020/12/20 01:30:40;;;;;;;2.10;2.00;;;20.40;50.00;;;;;;5071893;28;20510;-67
2020/12/20 01:33:06;;;;;;;1.77;1.67;;;20.40;50.00;;;;;;5064217;28;20847;-66
2020/12/20 01:35:32;;;;;;;2.20;2.10;;;20.40;50.00;;;;;;5055704;28;21909;-67
2020/12/20 01:37:58;;;;;;;1.67;1.67;;;20.40;50.00;;;;;;5047215;28;20482;-67
2020/12/20 01:40:25;;;;;;;2.20;2.10;;;20.40;49.80;;;;;;5057194;28;20474;-66
2020/12/20 01:42:55;;;;;;;2.37;2.23;;;20.40;49.80;;;;;;5071153;28;20496;-66
2020/12/20 01:45:21;;;;;;;1.73;1.63;;;20.40;49.70;;;;;;5069415;28;20576;-67
2020/12/20 01:47:47;;;;;;;2.30;2.10;;;20.40;49.60;;;;;;5068769;28;20500;-68
2020/12/20 01:50:13;;;;;;;2.17;2.07;;;20.40;49.70;;;;;;5061126;28;20590;-68
2020/12/20 01:52:40;;;;;;;2.43;2.33;;;20.40;49.60;;;;;;5052543;28;20549;-67
2020/12/20 01:55:06;;;;;;;1.90;1.80;;;20.50;49.60;;;;;;5043882;28;21318;-65
2020/12/20 01:57:33;;;;;;;2.53;2.30;;;20.40;49.50;;;;;;5072848;28;20869;-66
2020/12/20 01:59:59;;;;;;;2.53;2.40;;;20.40;49.60;;;;;;5056448;28;20481;-67
2020/12/20 02:02:25;;;;;;;1.67;1.67;;;20.40;49.50;;;;;;5056698;28;20936;-67
2020/12/20 02:04:51;;;;;;;2.60;2.40;;;20.40;49.50;;;;;;5052541;28;21433;-67
2020/12/20 02:07:18;;;;;;;2.60;2.40;;;20.40;49.50;;;;;;5070833;28;20548;-67
2020/12/20 02:09:44;;;;;;;2.77;2.57;;;20.40;49.60;;;;;;5069927;28;20473;-66
2020/12/20 02:12:11;;;;;;;2.43;2.33;;;20.50;49.60;;;;;;5053844;28;20976;-66
2020/12/20 02:14:38;;;;;;;2.30;2.20;;;20.50;49.60;;;;;;5067571;28;20506;-67
2020/12/20 02:17:04;;;;;;;2.23;2.13;;;20.50;49.40;;;;;;5056062;28;20523;-66
2020/12/20 02:19:30;;;;;;;2.83;2.73;;;20.60;49.40;;;;;;5056016;28;20485;-65
2020/12/20 02:21:57;;;;;;;1.90;1.80;;;20.50;49.20;;;;;;5067384;28;20482;-65
2020/12/20 02:24:24;;;;;;;2.30;2.20;;;20.50;49.10;;;;;;5068245;28;20480;-65
2020/12/20 02:26:50;;;;;;;1.80;1.70;;;20.50;49.20;;;;;;5073781;27;21280;-65
2020/12/20 02:29:16;;;;;;;2.17;2.07;;;20.50;49.20;;;;;;5070779;28;20478;-65
2020/12/20 02:31:42;;;;;;;2.37;2.27;;;20.50;49.10;;;;;;5049293;28;20498;-67
2020/12/20 02:34:10;;;;;;;2.70;2.50;;;20.50;49.20;;;;;;5066726;28;20484;-67
2020/12/20 02:36:36;;;;;;;2.40;2.20;;;20.50;49.20;;;;;;5065821;28;20613;-67
2020/12/20 02:39:03;;;;;;;2.50;2.40;;;20.50;49.20;;;;;;5070501;28;20484;-66
2020/12/20 02:41:31;;;;;;;2.00;1.90;;;20.50;49.10;;;;;;5065809;28;20479;-67
2020/12/20 02:43:58;;;;;;;2.43;2.33;;;20.50;49.10;;;;;;5082429;27;20473;-67
2020/12/20 02:46:25;;;;;;;2.27;2.07;;;20.50;48.90;;;;;;5068194;28;21062;-66
2020/12/20 02:48:51;;;;;;;2.20;2.10;;;20.50;49.80;;;;;;5059045;28;20488;-67
2020/12/20 02:51:17;;;;;;;2.87;2.77;;;20.50;49.00;;;;;;5070035;28;20488;-66
2020/12/20 02:53:45;;;;;;;2.00;1.90;;;20.50;49.00;;;;;;5047380;28;20511;-65
2020/12/20 02:56:12;;;;;;;1.90;1.80;;;20.50;49.00;;;;;;5074786;28;20945;-66
2020/12/20 02:58:38;;;;;;;2.73;2.63;;;20.50;49.10;;;;;;5056594;28;20473;-66
2020/12/20 03:01:04;;;;;;;2.77;2.57;;;20.50;49.20;;;;;;5039776;28;20482;-66
2020/12/20 03:03:31;;;;;;;2.40;2.30;;;20.50;49.20;;;;;;5040655;28;20512;-65
2020/12/20 03:05:57;;;;;;;2.30;2.20;;;20.50;49.10;;;;;;5031456;28;20506;-66
2020/12/20 03:08:23;;;;;;;2.53;2.40;;;20.40;49.20;;;;;;5046913;28;20499;-66
2020/12/20 03:10:50;;;;;;;3.23;2.17;;;20.40;49.00;;;;;;5034438;28;20477;-67
2020/12/20 03:13:17;;;;;;;2.43;2.33;;;20.40;49.10;;;;;;5011946;28;20513;-67
2020/12/20 03:15:44;;;;;;;2.07;1.97;;;20.40;49.00;;;;;;5026683;28;20481;-67
2020/12/20 03:18:10;;;;;;;2.33;2.23;;;20.40;49.10;;;;;;5034721;28;20894;-67
2020/12/20 03:20:36;;;;;;;3.10;2.90;;;20.50;49.10;;;;;;5048630;28;21127;-67
2020/12/20 03:23:04;;;;;;;2.43;2.33;;;20.50;49.20;;;;;;5047214;28;20532;-67
2020/12/20 03:25:30;;;;;;;4.80;2.70;;;20.50;49.00;;;;;;5027835;28;20479;-67
2020/12/20 03:27:56;;;;;;;2.20;2.13;;;20.50;49.00;;;;;;5014739;28;20495;-66
2020/12/20 03:30:23;;;;;;;2.40;2.30;;;20.50;49.00;;;;;;5029372;28;20497;-65
2020/12/20 03:32:49;;;;;;;2.70;2.17;;;20.50;49.00;;;;;;5047608;28;20485;-67
2020/12/20 03:35:15;;;;;;;2.23;1.90;;;20.40;49.10;;;;;;5017269;28;20488;-67
2020/12/20 03:37:48;;;;;;;2.33;2.23;;;20.40;49.20;;;;;;5037690;28;20491;-67
2020/12/20 03:40:14;;;;;;;2.33;2.20;;;20.40;49.10;;;;;;5001675;28;20473;-67
2020/12/20 03:42:40;;;;;;;3.03;2.20;;;20.40;49.20;;;;;;5035767;28;20477;-66
2020/12/20 03:45:06;;;;;;;2.33;1.90;;;20.40;49.20;;;;;;5035489;28;20481;-65
2020/12/20 03:47:33;;;;;;;1.67;1.67;;;20.40;49.20;;;;;;5040287;28;20502;-66
2020/12/20 03:49:59;;;;;;;1.90;1.90;;;20.40;49.10;;;;;;5041910;28;21385;-66
2020/12/20 03:52:25;;;;;;;2.20;2.10;;;20.40;49.10;;;;;;5051147;28;21050;-67
2020/12/20 03:54:52;;;;;;;2.00;1.90;;;20.40;49.20;;;;;;5025462;28;20576;-67
2020/12/20 03:57:18;;;;;;;1.90;1.80;;;20.40;49.20;;;;;;5041933;28;20482;-67
2020/12/20 03:59:45;;;;;;;1.90;1.80;;;20.40;49.20;;;;;;5017142;28;20536;-66
2020/12/20 04:02:11;;;;;;;2.00;1.90;;;20.40;49.10;;;;;;5030055;28;20485;-66
2020/12/20 04:04:38;;;;;;;2.40;2.20;;;20.40;49.20;;;;;;5013452;28;20493;-66
2020/12/20 04:07:04;;;;;;;1.77;1.67;;;20.40;49.00;;;;;;5029922;28;20507;-67
2020/12/20 04:09:30;;;;;;;1.93;1.87;;;20.40;49.60;;;;;;5028007;28;20855;-66
2020/12/20 04:11:56;;;;;;;1.60;1.60;;;20.40;49.30;;;;;;5039128;28;20486;-65
2020/12/20 04:14:22;;;;;;;2.10;2.00;;;20.30;49.20;;;;;;5010150;28;20493;-65
2020/12/20 04:16:49;;;;;;;2.40;2.30;;;20.30;49.20;;;;;;5008848;28;21742;-65
2020/12/20 04:19:15;;;;;;;2.20;2.10;;;20.30;49.30;;;;;;5043443;28;20595;-67
2020/12/20 04:21:42;;;;;;;2.33;2.13;;;20.30;49.40;;;;;;5047780;28;20505;-66
2020/12/20 04:24:08;;;;;;;2.20;2.10;;;20.30;49.30;;;;;;5033662;28;20489;-67
2020/12/20 04:26:34;;;;;;;3.27;2.00;;;20.30;49.50;;;;;;5036413;28;20485;-66
2020/12/20 04:29:00;;;;;;;2.20;2.10;;;20.30;49.40;;;;;;5052338;28;20563;-66
2020/12/20 04:31:26;;;;;;;1.93;1.83;;;20.30;49.30;;;;;;5037508;28;20482;-67
2020/12/20 04:33:53;;;;;;;2.90;1.80;;;20.30;49.30;;;;;;5021604;28;20489;-65
2020/12/20 04:36:19;;;;;;;2.10;2.00;;;20.30;49.30;;;;;;5031323;28;20470;-67
2020/12/20 04:38:46;;;;;;;2.00;1.90;;;20.30;49.30;;;;;;5040200;28;20512;-65
2020/12/20 04:41:12;;;;;;;2.03;2.00;;;20.30;49.40;;;;;;5040732;28;20487;-66
2020/12/20 04:43:38;;;;;;;2.83;2.67;;;20.30;49.50;;;;;;4995784;28;20478;-67
2020/12/20 04:46:04;;;;;;;2.53;2.33;;;20.30;49.40;;;;;;5020368;28;20493;-67
2020/12/20 04:48:35;;;;;;;2.23;2.13;;;20.30;49.30;;;;;;5046733;28;20479;-66
2020/12/20 04:51:01;;;;;;;2.27;2.17;;;20.30;49.50;;;;;;5056595;28;20493;-66
2020/12/20 04:53:27;;;;;;;2.17;2.07;;;20.30;49.40;;;;;;5043815;28;21543;-67
2020/12/20 04:55:54;;;;;;;1.70;1.60;;;20.30;49.40;;;;;;5046787;28;20479;-65
2020/12/20 04:58:21;;;;;;;2.40;2.30;;;20.30;49.50;;;;;;5046050;28;20537;-66
2020/12/20 05:00:47;;;;;;;2.43;2.33;;;20.30;49.40;;;;;;5034814;28;20504;-66
2020/12/20 05:03:13;;;;;;;2.33;2.23;;;20.30;49.30;;;;;;5065157;28;20557;-66
2020/12/20 05:05:39;;;;;;;2.53;2.10;;;20.30;49.30;;;;;;5068206;28;20473;-65
2020/12/20 05:08:05;;;;;;;2.03;1.93;;;20.30;49.30;;;;;;5071030;28;20477;-66
2020/12/20 05:10:41;;;;;;;2.30;2.20;;;20.30;49.30;;;;;;5047871;28;20492;-66
2020/12/20 05:13:08;;;;;;;2.30;2.20;;;20.30;49.40;;;;;;5040602;28;20549;-66
2020/12/20 05:15:34;;;;;;;2.30;2.10;;;20.20;49.30;;;;;;5033485;28;20485;-67
2020/12/20 05:18:04;;;;;;;2.13;2.03;;;20.20;49.40;;;;;;5058341;28;20535;-66
2020/12/20 05:20:40;;;;;;;2.10;2.00;;;20.20;49.40;;;;;;5063007;28;20562;-67
2020/12/20 05:23:06;;;;;;;2.20;2.00;;;20.20;49.40;;;;;;5018707;28;20484;-65
2020/12/20 05:25:33;;;;;;;1.87;1.77;;;20.20;49.40;;;;;;5059183;28;21948;-66
2020/12/20 05:28:10;;;;;;;2.93;2.70;;;20.20;49.40;;;;;;5052206;28;20482;-67
2020/12/20 05:30:36;;;;;;;2.17;2.07;;;20.20;49.40;;;;;;5054338;28;20478;-67
2020/12/20 05:33:03;;;;;;;2.53;2.43;;;20.20;49.50;;;;;;5039068;28;20470;-67
2020/12/20 05:35:29;;;;;;;2.13;2.03;;;20.20;49.50;;;;;;5052903;28;21040;-66
2020/12/20 05:37:55;;;;;;;2.20;2.10;;;20.20;49.60;;;;;;5065249;28;20485;-67
2020/12/20 05:40:27;;;;;;;2.43;2.33;;;20.20;49.60;;;;;;5067572;28;20468;-66
2020/12/20 05:42:55;;;;;;;2.27;2.07;;;20.20;49.50;;;;;;5054467;28;20465;-67
2020/12/20 05:45:24;;;;;;;3.30;2.10;;;20.20;49.50;;;;;;5047408;28;20484;-67
2020/12/20 05:47:50;;;;;;;2.00;1.90;;;20.20;49.30;;;;;;5061347;28;20487;-67
2020/12/20 05:50:17;;;;;;;2.30;1.80;;;20.20;49.20;;;;;;5067777;28;21004;-67
2020/12/20 05:52:43;;;;;;;5.87;2.67;;;20.20;49.40;;;;;;5060365;28;20468;-66
2020/12/20 05:55:12;;;;;;;2.00;1.90;;;20.20;49.40;;;;;;5053357;28;20487;-67
2020/12/20 05:57:38;;;;;;;2.07;1.97;;;20.20;49.40;;;;;;5036996;28;20501;-66
2020/12/20 06:00:05;;;;;;;2.13;2.03;;;20.20;49.30;;;;;;5037458;28;20484;-67
2020/12/20 06:02:32;;;;;;;2.30;2.20;;;20.20;50.10;;;;;;5057638;28;20556;-67
2020/12/20 06:04:59;;;;;;;2.33;2.10;;;20.20;49.60;;;;;;5007020;28;21375;-67
2020/12/20 06:07:26;;;;;;;2.10;2.00;;;20.20;49.40;;;;;;5041911;28;20544;-67
2020/12/20 06:09:54;;;;;;;2.30;2.20;;;20.20;49.40;;;;;;5027100;28;21610;-67
2020/12/20 06:12:21;;;;;;;1.87;1.87;;;20.10;49.30;;;;;;5049150;28;20877;-66
2020/12/20 06:14:47;;;;;;;2.13;2.03;;;20.10;49.40;;;;;;5033482;28;20492;-66
2020/12/20 06:17:15;;;;;;;2.07;1.97;;;20.10;49.30;;;;;;5046035;28;20526;-66
2020/12/20 06:19:53;;;;;;;2.30;2.20;;;20.10;49.10;;;;;;5026681;28;20487;-66
2020/12/20 06:22:24;;;;;;;2.27;2.17;;;20.20;49.00;;;;;;5050833;28;20481;-65
2020/12/20 06:24:51;;;;;;;2.17;2.03;;;20.30;49.00;;;;;;5041054;28;20493;-65
2020/12/20 06:27:18;;;;;;;2.27;2.17;;;20.30;49.00;;;;;;5051516;28;20484;-67
2020/12/20 06:29:48;;;;;;;1.93;1.70;;;20.30;48.70;;;;;;5036936;28;20485;-66
2020/12/20 06:32:18;;;;;;;2.33;2.23;;;20.40;48.60;;;;;;5035118;28;20492;-67
2020/12/20 06:34:44;;;;;;;1.83;1.73;;;20.40;48.50;;;;;;5066845;28;20526;-66
2020/12/20 06:37:11;;;;;;;2.87;2.67;;;20.50;48.60;;;;;;5012917;28;20493;-66
2020/12/20 06:39:38;;;;;;;2.60;2.50;;;20.50;48.60;;;;;;5042097;28;20472;-66
2020/12/20 06:42:05;;;;;;;2.23;2.10;;;20.50;48.40;;;;;;5036402;28;20494;-67
2020/12/20 06:44:31;;;;;;;2.50;2.40;;;20.50;48.40;;;;;;5020053;28;20478;-67
2020/12/20 06:46:58;;;;;;;2.00;1.90;;;20.50;48.50;;;;;;5045110;28;20502;-66
2020/12/20 06:49:34;;;;;;;1.93;1.83;;;20.40;48.40;;;;;;5036431;28;20512;-65
2020/12/20 06:52:20;;;;;;;2.70;2.50;;;20.40;48.50;;;;;;5050551;28;20477;-65
2020/12/20 06:55:05;;;;;;;2.60;2.50;;;20.40;48.70;;;;;;5063402;28;20476;-66
2020/12/20 06:57:32;;;;;;;2.20;2.10;;;20.50;48.70;;;;;;5063909;28;20550;-66
2020/12/20 06:59:58;;;;;;;2.30;2.10;;;20.40;48.60;;;;;;5049495;28;20526;-64
2020/12/20 07:02:46;;;;;;;2.20;2.10;;;20.40;48.70;;;;;;5060076;28;20481;-65
2020/12/20 07:05:34;;;;;;;2.20;2.10;;;20.40;48.80;;;;;;5061003;28;20485;-66
2020/12/20 07:08:08;;;;;;;2.10;2.00;;;20.30;48.80;;;;;;5061799;28;20572;-65
2020/12/20 07:10:41;;;;;;;2.53;2.43;;;20.30;48.90;;;;;;5069118;28;20488;-66
2020/12/20 07:13:08;;;;;;;2.37;2.27;;;20.30;48.80;;;;;;5051876;28;20512;-66
2020/12/20 07:15:47;;;;;;;2.13;2.07;;;20.30;48.80;;;;;;5078330;28;20534;-66
2020/12/20 07:18:42;;;;;;;1.90;1.80;;;20.30;48.80;;;;;;5069009;28;20469;-65
2020/12/20 07:21:10;;;;;;;2.00;1.80;;;20.30;48.70;;;;;;5058075;28;20473;-67
2020/12/20 07:23:39;;;;;;;2.00;1.90;;;20.30;48.80;;;;;;5018247;28;20517;-66
2020/12/20 07:26:05;;;;;;;2.50;2.40;;;20.30;48.70;;;;;;5046567;28;21002;-67
2020/12/20 07:28:32;;;;;;;2.13;2.03;;;20.30;48.70;;;;;;5063550;28;20978;-67
2020/12/20 07:30:58;;;;;;;2.13;2.00;;;20.30;48.70;;;;;;5059636;28;20504;-65
2020/12/20 07:33:24;;;;;;;1.90;1.87;;;20.30;48.70;;;;;;5071214;27;20484;-66
2020/12/20 07:35:50;;;;;;;2.00;1.90;;;20.30;48.70;;;;;;5057622;28;20586;-66
2020/12/20 07:38:16;;;;;;;2.23;2.13;;;20.30;49.00;;;;;;5046900;28;20476;-66
2020/12/20 07:40:43;;;;;;;2.00;2.00;;;20.20;49.00;;;;;;5015045;28;20482;-66
2020/12/20 07:43:09;;;;;;;2.33;2.23;;;20.20;49.00;;;;;;5038988;28;21054;-67
2020/12/20 07:45:35;;;;;;;3.67;2.00;;;20.20;49.10;;;;;;5044897;28;20489;-67
2020/12/20 07:48:01;;;;;;;3.13;2.93;;;20.20;49.10;;;;;;5050429;28;20499;-66
2020/12/20 07:50:28;;;;;;;1.90;1.80;;;20.20;49.00;;;;;;5043751;28;20494;-66
2020/12/20 07:52:54;;;;;;;2.47;2.37;;;20.20;49.00;;;;;;5042754;28;20493;-66
2020/12/20 07:55:20;;;;;;;1.97;1.87;;;20.20;49.00;;;;;;5009646;28;20544;-65
2020/12/20 07:57:47;;;;;;;2.07;1.93;;;20.20;48.90;;;;;;5044396;28;21272;-66
2020/12/20 08:00:14;;;;;;;3.00;2.70;;;20.20;48.90;;;;;;5045912;28;20489;-66
2020/12/20 08:02:40;;;;;;;2.03;1.97;;;20.20;48.80;;;;;;5050511;28;20486;-66
2020/12/20 08:05:07;;;;;;;1.87;1.77;;;20.20;48.60;;;;;;5050619;28;20485;-66
2020/12/20 08:07:33;;;;;;;2.30;2.20;;;20.30;48.80;;;;;;5040187;28;20485;-67
2020/12/20 08:09:59;;;;;;;2.57;2.47;;;20.20;48.70;;;;;;5054281;28;20490;-65
2020/12/20 08:12:25;;;;;;;1.83;1.77;;;20.30;48.80;;;;;;5028719;28;20491;-67
2020/12/20 08:15:02;;;;;;;2.10;2.00;;;20.30;48.80;;;;;;5042232;28;20529;-66
2020/12/20 08:17:28;;;;;;;2.50;2.27;;;20.30;48.90;;;;;;5050904;28;20482;-67
2020/12/20 08:19:54;;;;;;;3.23;1.97;;;20.30;48.80;;;;;;5042033;28;20486;-66
2020/12/20 08:22:20;;;;;;;2.07;2.07;;;20.30;48.60;;;;;;5054775;28;20485;-67
2020/12/20 08:24:47;;;;;;;2.27;2.17;;;20.30;48.60;;;;;;5048686;28;20480;-67
2020/12/20 08:27:14;;;;;;;1.80;1.70;;;20.30;48.60;;;;;;5071346;28;20481;-66
2020/12/20 08:29:41;;;;;;;2.10;2.00;;;20.30;48.70;;;;;;5070831;28;20480;-66
2020/12/20 08:32:12;;;;;;;2.30;2.20;;;20.30;48.80;;;;;;5071823;28;20543;-66
2020/12/20 08:34:38;;;;;;;2.43;2.33;;;20.30;48.70;;;;;;5060643;28;20480;-67
2020/12/20 08:37:08;;;;;;;2.13;2.03;;;20.30;48.70;;;;;;5070192;28;20473;-67
2020/12/20 08:39:34;;;;;;;2.17;2.07;;;20.30;48.50;;;;;;5051141;28;20468;-66
2020/12/20 08:42:04;;;;;;;2.17;2.03;;;20.40;48.40;;;;;;5069964;28;20469;-66
2020/12/20 08:44:30;;;;;;;1.87;1.77;;;20.40;48.50;;;;;;5062755;28;20481;-66
2020/12/20 08:47:08;;;;;;;2.00;1.90;;;20.40;48.40;;;;;;5067744;28;20481;-66
2020/12/20 08:49:35;;;;;;;2.17;2.10;;;20.30;48.60;;;;;;5041888;28;20485;-67
2020/12/20 08:52:14;;;;;;;2.33;2.00;;;20.30;48.60;;;;;;5050790;28;20486;-67
2020/12/20 08:54:40;;;;;;;2.03;1.93;;;20.20;48.70;;;;;;5037687;28;20512;-67
2020/12/20 08:57:07;;;;;;;2.10;2.00;;;20.20;48.80;;;;;;5051904;28;20474;-67
2020/12/20 08:59:35;;;;;;;2.77;2.20;;;20.20;48.70;;;;;;5048315;28;20598;-66
2020/12/20 09:02:02;;;;;;;2.50;2.40;;;20.20;48.70;;;;;;5041676;28;20527;-66
2020/12/20 09:04:29;;;;;;;1.93;1.83;;;20.30;48.60;;;;;;5040464;28;20517;-65
2020/12/20 09:07:04;;;;;;;2.10;2.00;;;20.30;48.50;;;;;;5040255;28;20947;-65
2020/12/20 09:09:30;;;;;;;2.20;1.93;;;20.40;48.40;;;;;;5035546;28;20489;-64
2020/12/20 09:12:10;;;;;;;3.00;2.70;;;20.40;48.30;;;;;;5034329;28;20490;-69
2020/12/20 09:14:36;;;;;;;2.20;2.10;;;20.50;48.20;;;;;;5033984;28;20481;-66
2020/12/20 09:17:02;;;;;;;4.13;2.10;;;20.50;48.10;;;;;;5039485;28;20482;-66
2020/12/20 09:19:28;;;;;;;2.60;2.40;;;20.40;48.00;;;;;;5051286;28;20497;-66
2020/12/20 09:21:54;;;;;;;2.17;2.07;;;20.40;48.20;;;;;;5040342;28;20485;-66
2020/12/20 09:24:21;;;;;;;2.53;2.43;;;20.40;48.20;;;;;;5036972;28;20475;-66
2020/12/20 09:26:57;;;;;;;3.47;2.30;;;20.40;48.30;;;;;;5011351;28;20482;-67
2020/12/20 09:29:23;;;;;;;2.10;2.00;;;20.30;48.10;;;;;;5061015;28;20575;-67
2020/12/20 09:31:51;;;;;;;2.67;2.57;;;20.30;48.00;;;;;;5071317;28;20476;-65
2020/12/20 09:34:17;;;;;;;2.60;2.50;;;20.30;48.20;;;;;;5070296;28;21132;-67
2020/12/20 09:36:43;;;;;;;2.90;2.70;;;20.20;48.40;;;;;;5072138;28;20496;-66
2020/12/20 09:39:12;;;;;;;2.63;2.33;;;20.20;48.50;;;;;;5067931;28;20549;-65
2020/12/20 09:41:39;;;;;;;3.57;2.70;;;20.10;48.50;;;;;;5070473;28;20484;-66
2020/12/20 09:44:05;;;;;;;1.97;1.87;;;20.10;48.70;;;;;;5068972;28;20492;-66
2020/12/20 09:46:32;;;;;;;2.40;2.23;;;20.10;48.90;;;;;;5067838;28;20480;-66
2020/12/20 09:48:58;;;;;;;2.63;2.47;;;20.20;48.90;;;;;;5068012;28;20474;-65
2020/12/20 09:51:25;;;;;;;2.73;2.63;;;20.20;49.00;;;;;;5058162;28;20490;-67
2020/12/20 09:53:51;;;;;;;1.80;1.70;;;20.20;49.30;;;;;;5071541;28;20496;-67
2020/12/20 09:56:17;;;;;;;4.50;1.97;;;20.20;49.80;;;;;;5057363;28;20521;-67
2020/12/20 09:58:44;;;;;;;2.40;2.20;;;20.20;49.10;;;;;;5084727;28;20473;-68
2020/12/20 10:01:15;;;;;;;2.20;2.10;;;20.20;49.30;;;;;;5054383;28;20857;-67
2020/12/20 10:03:41;;;;;;;2.70;2.50;;;20.20;49.60;;;;;;5062111;28;20863;-66
2020/12/20 10:06:07;;;;;;;4.20;2.13;;;20.10;49.30;;;;;;5074808;27;20491;-66
2020/12/20 10:08:34;;;;;;;2.00;1.90;;;20.10;49.50;;;;;;5073804;28;20469;-66
2020/12/20 10:11:00;;;;;;;2.60;2.40;;;20.10;49.40;;;;;;5071039;28;20477;-66
2020/12/20 10:13:26;;;;;;;2.07;1.87;;;20.10;49.50;;;;;;5060642;27;20492;-67
2020/12/20 10:15:53;;;;;;;2.03;1.93;;;20.10;49.40;;;;;;5054341;27;20480;-66
2020/12/20 10:18:19;;;;;;;2.27;2.17;;;20.10;49.60;;;;;;5048972;28;20485;-66
2020/12/20 10:20:45;;;;;;;2.57;2.47;;;20.10;49.50;;;;;;5076162;28;20542;-67
2020/12/20 10:23:12;;;;;;;2.67;2.47;;;20.10;49.50;;;;;;5049244;28;20472;-67
2020/12/20 10:25:40;;;;;;;1.97;1.87;;;20.10;49.70;;;;;;5032190;28;20514;-67
2020/12/20 10:28:06;;;;;;;2.33;2.23;;;20.10;49.60;;;;;;5023555;28;20491;-66
2020/12/20 10:30:32;;;;;;;2.80;2.20;;;20.10;49.70;;;;;;5023861;28;21531;-66
2020/12/20 10:32:59;;;;;;;1.97;1.87;;;20.10;49.70;;;;;;5045797;28;20515;-68
2020/12/20 10:35:27;;;;;;;2.00;1.90;;;20.20;49.70;;;;;;5024590;28;20602;-66
2020/12/20 10:37:53;;;;;;;1.93;1.83;;;20.20;49.70;;;;;;5038509;28;21393;-67
2020/12/20 10:40:19;;;;;;;1.90;1.80;;;20.20;49.60;;;;;;5031935;28;21312;-66
2020/12/20 10:42:45;;;;;;;2.00;1.90;;;20.20;49.60;;;;;;5056716;28;20473;-67
2020/12/20 10:45:12;;;;;;;1.67;1.60;;;20.20;49.70;;;;;;5065541;28;20978;-67
2020/12/20 10:47:38;;;;;;;2.03;1.93;;;20.20;49.70;;;;;;5059426;28;20488;-67
2020/12/20 10:50:05;;;;;;;1.80;1.70;;;20.20;49.60;;;;;;5069836;28;20481;-67
2020/12/20 10:52:31;;;;;;;2.03;1.93;;;20.20;49.70;;;;;;5058872;28;20490;-67
2020/12/20 10:54:57;;;;;;;1.80;1.70;;;20.30;49.70;;;;;;5050856;28;20491;-66
2020/12/20 10:57:23;;;;;;;1.90;1.80;;;20.30;49.60;;;;;;5050916;28;20489;-67
2020/12/20 10:59:49;;;;;;;1.97;1.90;;;20.40;49.40;;;;;;5047415;28;21239;-66
2020/12/20 11:02:16;;;;;;;2.30;2.10;;;20.40;49.50;;;;;;5046721;28;21107;-66
2020/12/20 11:04:43;;;;;;;2.17;2.07;;;20.40;49.40;;;;;;5048894;28;20491;-67
2020/12/20 11:07:10;;;;;;;1.93;1.83;;;20.50;49.30;;;;;;5044590;28;20478;-67
2020/12/20 11:09:36;;;;;;;2.10;2.00;;;20.50;49.20;;;;;;5047401;28;20486;-67
2020/12/20 11:12:03;;;;;;;2.40;2.20;;;20.50;49.30;;;;;;5049886;28;20482;-66
2020/12/20 11:14:30;;;;;;;1.80;1.70;;;20.50;49.30;;;;;;5004222;28;20577;-66
2020/12/20 11:16:57;;;;;;;2.03;1.93;;;20.40;49.40;;;;;;5047178;28;20514;-66
2020/12/20 11:19:23;;;;;;;1.90;1.80;;;20.40;49.30;;;;;;5045552;28;20494;-68
2020/12/20 11:21:49;;;;;;;1.90;1.80;;;20.40;49.40;;;;;;5046079;28;20474;-67
2020/12/20 11:24:16;;;;;;;1.77;1.50;;;20.40;49.40;;;;;;5037219;28;20536;-66
2020/12/20 11:26:43;;;;;;;1.97;1.87;;;20.40;49.40;;;;;;5012998;28;20482;-69
2020/12/20 11:29:09;;;;;;;2.57;1.80;;;20.40;49.30;;;;;;5062682;28;20549;-70
2020/12/20 11:31:35;;;;;;;4.83;1.60;;;20.50;50.10;;;;;;5028861;28;20889;-66
2020/12/20 11:34:01;;;;;;;2.10;2.00;;;20.50;49.90;;;;;;5045217;28;20473;-67
2020/12/20 11:36:27;;;;;;;9.40;2.23;;;20.60;49.90;;;;;;5045674;28;20519;-66
2020/12/20 11:38:53;;;;;;;4.97;2.80;;;20.60;50.30;;;;;;5036305;28;20490;-65
2020/12/20 11:41:21;;;;;;;6.03;2.30;;;20.70;50.90;;;;;;5047242;28;20478;-69
2020/12/20 11:43:47;;;;;;;3.10;1.97;;;20.70;50.50;;;;;;5049086;28;21045;-66
2020/12/20 11:46:14;;;;;;;3.17;2.10;;;20.70;50.50;;;;;;5044124;28;21054;-66
2020/12/20 11:48:40;;;;;;;2.93;2.17;;;20.70;50.30;;;;;;5037065;28;20850;-66
2020/12/20 11:51:07;;;;;;;2.00;1.90;;;20.60;50.20;;;;;;5045385;28;20565;-68
2020/12/20 11:53:34;;;;;;;1.70;1.60;;;20.60;50.10;;;;;;5035677;28;20540;-66
2020/12/20 11:56:00;;;;;;;15.33;3.60;;;20.70;50.30;;;;;;5027280;28;20853;-67
2020/12/20 11:58:27;;;;;;;2.13;2.03;;;20.70;50.20;;;;;;5025020;28;20930;-66
2020/12/20 12:00:53;;;;;;;2.40;1.70;;;20.60;50.10;;;;;;5035519;28;20518;-67
2020/12/20 12:03:19;;;;;;;3.17;1.77;;;20.60;50.20;;;;;;5042998;28;21083;-66
2020/12/20 12:05:45;;;;;;;1.67;1.57;;;20.50;50.80;;;;;;5037700;28;21153;-67
2020/12/20 12:08:12;;;;;;;2.07;1.90;;;20.50;50.20;;;;;;5040172;28;20481;-67
2020/12/20 12:10:40;;;;;;;1.43;1.43;;;20.50;50.20;;;;;;5038342;28;20493;-66
2020/12/20 12:13:06;;;;;;;2.10;2.00;;;20.60;50.70;;;;;;5015808;28;21118;-66
2020/12/20 12:15:33;;;;;;;2.33;2.27;;;20.60;50.40;;;;;;5038189;28;20482;-66
2020/12/20 12:17:59;;;;;;;7.20;2.73;;;20.70;50.50;;;;;;5045159;28;21016;-66
2020/12/20 12:20:26;;;;;;;2.50;1.80;;;20.70;50.60;;;;;;5038505;28;21143;-67
2020/12/20 12:22:52;;;;;;;3.73;1.87;;;20.60;50.50;;;;;;5048517;28;20486;-67
2020/12/20 12:25:18;;;;;;;2.37;2.27;;;20.60;50.50;;;;;;5025441;28;20504;-66
2020/12/20 12:27:44;;;;;;;6.20;1.70;;;20.60;50.50;;;;;;5031029;28;20493;-67
2020/12/20 12:30:10;;;;;;;4.30;2.00;;;20.60;50.50;;;;;;5039725;28;20568;-67
2020/12/20 12:32:37;;;;;;;2.43;2.00;;;20.50;50.40;;;;;;5040381;28;21099;-67
2020/12/20 12:35:04;;;;;;;3.33;1.90;;;20.50;50.40;;;;;;5047622;28;20477;-67
2020/12/20 12:37:30;;;;;;;1.80;1.70;;;20.60;50.80;;;;;;5049637;28;21211;-67
2020/12/20 12:39:56;;;;;;;2.00;1.90;;;20.60;50.90;;;;;;5028596;28;20861;-66
2020/12/20 12:42:23;;;;;;;3.77;2.03;;;20.60;50.70;;;;;;5047931;28;20519;-67
2020/12/20 12:44:49;;;;;;;3.70;2.17;;;20.60;50.60;;;;;;5048928;28;20470;-67
2020/12/20 12:47:15;;;;;;;8.57;2.00;;;20.60;51.30;;;;;;5048393;28;20489;-66